Tropical Cyclones
[Index]
Main Index Home Page Stock Weather Photos Extreme Storms Discussion Storm News and Storm Chasing Reports Tropical Cyclones / Hurricanes / Typhoons Weather Data and Links Wild Fires / Bushfires Weather Observation Techniques Weather Picture Catalogue Tornado Pictures and Reports Stock Video Footage and DVDs for sale
Season 1969-1970 Tropical Cyclone 196970_07 Track Map
Season 1969-1970 Summaries: [BoM-AU] [JTWC-AU] [JTWC-SIO] [JTWC-SPAC] [JTWC-SH]
<<- Previous TC | BoM 1969-1970 Season | Next TC ->>

click for intensity scale information  Lat/long Grid: Show Hide

 Date Labels: Show Hide

Bureau of Meteorology Tropical Cyclone Data

Name: 196970_07
Number: 457 / 196970_07

01 Mar 1970 05:00 UTC to 04 Mar 1970 23:00 UTC

    date/time    lat    long    hPa   cat  kts
1970-03-01 05   13.6   147.0   1003                     
1970-03-01 08   13.8   147.0   1003                     
1970-03-01 11   14.0   147.0   1005                     
1970-03-01 14   14.2   147.0   1005                     
1970-03-01 17   14.4   147.1   1004                     
1970-03-01 20   14.5   147.1   1005                     
1970-03-01 23   14.6   147.2   1006                     
1970-03-02 02   14.7   147.2   1006                     
1970-03-02 02   15.6   148.2   1005                     
1970-03-02 05   14.9   147.3   1004                     
1970-03-02 08   15.1   147.3   1004                     
1970-03-02 11   15.3   147.4   1005                     
1970-03-02 14   15.4   147.5   1004                     
1970-03-02 17   15.5   147.6   1003                     
1970-03-02 20   15.6   147.8   1003                     
1970-03-02 23   15.6   148.2   1005                     
1970-03-03 02   15.6   148.4   1005                     
1970-03-03 05   15.6   148.7   1002                     
1970-03-03 08   15.6   149.0   1001                     
1970-03-03 11   15.6   149.2   1002                     
1970-03-03 14   15.6   149.6   1002                     
1970-03-03 17   15.6   149.8   1001                     
1970-03-03 20   15.7   150.1   1001                     
1970-03-03 23   15.8   150.4   1002                     
1970-03-04 02   15.8   150.7   1001                     
1970-03-04 05   15.9   151.0   1000                     
1970-03-04 08   16.0   151.3   1001                     
1970-03-04 11   16.1   151.7   1001                     
1970-03-04 14   16.2   151.9   1000                     
1970-03-04 17   16.3   152.3   1000                     
1970-03-04 20   16.5   152.7   1001                     
1970-03-04 23   16.7   153.1   1001                     
Winds are 10-min average.

Tropical cyclone tracks developed by Michael Bath using data from the Bureau of Meteorology and Google Maps.


[Australian Severe Weather index] [Copyright Notice] [Email Contacts] [Search This Site] [Privacy Policy]
Document: tropical_cyclone_196970_07.htm Updated: 30 May 2013